Time;durP1;ratioP1;P1;durP2;ratioP2;P2;SDS_P1;SDS_P2;PMS_P1;PMS_P2;Temp;Humidity;BMP_temperature;BMP_pressure;BME280_temperature;BME280_humidity;BME280_pressure;Samples;Min_cycle;Max_cycle;Signal;HPM_P1;HPM_P2
2021/05/26 00:00:28;;;;;;;;;;;;;;;8.90;74.50;96198.28;1279042;23;19924;-68
2021/05/26 00:00:59;;;;;;;;;;;;;;;8.92;74.24;96200.72;1278983;23;19896;-68
2021/05/26 00:01:29;;;;;;;;;;;;;;;8.94;74.23;96198.59;1278608;23;19900;-67
2021/05/26 00:01:59;;;;;;;;;;;;;;;8.93;74.28;96196.97;1278583;23;19903;-67
2021/05/26 00:02:30;;;;;;;;;;;;;;;8.94;74.24;96198.59;1278612;23;19896;-67
2021/05/26 00:03:00;;;;;;;;;;;;;;;8.93;74.02;96196.97;1278536;23;19962;-67
2021/05/26 00:03:30;;;;;;;;;;;;;;;8.94;74.17;96195.91;1279115;23;19900;-67
2021/05/26 00:04:00;;;;;;;;;;;;;;;8.95;73.95;96197.53;1278873;23;20298;-67
2021/05/26 00:04:31;;;;;;;;;;;;;;;8.96;74.25;96199.16;1278715;23;20295;-68
2021/05/26 00:05:01;;;;;;;;;;;;;;;8.97;74.18;96192.75;1278780;23;19978;-68
2021/05/26 00:05:32;;;;;;;;;;;;;;;8.97;73.90;96196.22;1279120;23;19924;-67
2021/05/26 00:06:02;;;;;;;;;;;;;;;8.98;74.09;96186.34;1278959;23;19958;-68
2021/05/26 00:06:32;;;;;;;;;;;;;;;8.96;74.47;96193.81;1279040;23;19911;-67
2021/05/26 00:07:03;;;;;;;;;;;;;;;8.98;74.36;96197.03;1278928;23;19962;-67
2021/05/26 00:07:33;;;;;;;;;;;;;;;9.02;74.00;96195.47;1279111;23;19911;-68
2021/05/26 00:08:03;;;;;;;;;;;;;;;9.02;73.94;96193.59;1278879;23;20215;-68
2021/05/26 00:08:34;;;;;;;;;;;;;;;9.01;74.30;96186.66;1279021;23;19908;-68
2021/05/26 00:09:04;;;;;;;;;;;;;;;9.03;74.30;96184.53;1278984;23;19975;-67
2021/05/26 00:09:35;;;;;;;;;;;;;;;8.96;74.06;96181.28;1278933;23;19904;-67
2021/05/26 00:10:05;;;;;;;;;;;;;;;8.95;74.27;96178.84;1278855;23;20333;-67
2021/05/26 00:10:35;;;;;;;;;;;;;;;8.94;74.09;96180.72;1279063;23;19982;-67
2021/05/26 00:11:07;;;;;;;;;;;;;;;8.97;73.93;96179.44;1278957;23;19923;-66
2021/05/26 00:11:37;;;;;;;;;;;;;;;8.95;74.26;96187.66;1279027;23;19904;-66
2021/05/26 00:12:07;;;;;;;;;;;;;;;8.93;74.13;96183.66;1278919;23;20329;-68
2021/05/26 00:12:38;;;;;;;;;;;;;;;8.95;74.22;96186.84;1278951;23;19983;-68
2021/05/26 00:13:08;;;;;;;;;;;;;;;8.93;74.88;96184.47;1278951;23;19906;-67
2021/05/26 00:13:38;;;;;;;;;;;;;;;8.93;74.28;96171.13;1279012;23;19911;-68
2021/05/26 00:14:09;;;;;;;;;;;;;;;8.93;74.75;96179.13;1278918;23;20369;-68
2021/05/26 00:14:39;;;;;;;;;;;;;;;8.92;74.85;96182.06;1278926;23;19912;-68
2021/05/26 00:15:10;;;;;;;;;;;;;;;8.93;74.20;96187.13;1278958;23;19900;-67
2021/05/26 00:15:40;;;;;;;;;;;;;;;8.92;74.49;96180.19;1278982;23;19904;-68
2021/05/26 00:16:10;;;;;;;;;;;;;;;8.95;74.49;96173.53;1278476;23;19954;-69
2021/05/26 00:16:41;;;;;;;;;;;;;;;8.96;74.48;96183.16;1278675;23;19904;-69
2021/05/26 00:17:11;;;;;;;;;;;;;;;8.97;74.35;96179.44;1278651;23;19900;-68
2021/05/26 00:17:41;;;;;;;;;;;;;;;8.98;74.10;96181.81;1278620;23;20350;-67
2021/05/26 00:18:12;;;;;;;;;;;;;;;9.05;74.58;96187.75;1278912;23;19900;-68
2021/05/26 00:18:42;;;;;;;;;;;;;;;9.03;74.50;96176.53;1278962;23;19999;-67
2021/05/26 00:19:13;;;;;;;;;;;;;;;9.08;74.36;96173.09;1278963;23;19900;-68
2021/05/26 00:19:44;;;;;;;;;;;;;;;9.08;74.13;96173.09;1278783;23;19943;-69
2021/05/26 00:20:14;;;;;;;;;;;;;;;9.10;73.64;96166.44;1279058;23;19900;-67
2021/05/26 00:20:46;;;;;;;;;;;;;;;9.11;74.26;96172.59;1278993;23;20303;-68
2021/05/26 00:21:17;;;;;;;;;;;;;;;9.11;73.41;96176.06;1278910;23;19907;-68
2021/05/26 00:21:47;;;;;;;;;;;;;;;9.13;73.85;96175.81;1278952;23;19904;-68
2021/05/26 00:22:17;;;;;;;;;;;;;;;9.10;74.30;96177.09;1279060;23;19908;-68
2021/05/26 00:22:48;;;;;;;;;;;;;;;9.12;73.70;96176.88;1278734;23;19905;-67
2021/05/26 00:23:18;;;;;;;;;;;;;;;9.15;73.53;96173.69;1278706;23;19914;-68
2021/05/26 00:23:49;;;;;;;;;;;;;;;9.17;73.70;96176.91;1278889;23;19911;-68
2021/05/26 00:24:19;;;;;;;;;;;;;;;9.14;73.75;96169.41;1278918;23;19915;-68
2021/05/26 00:24:49;;;;;;;;;;;;;;;9.17;73.71;96168.13;1279166;23;19939;-69
2021/05/26 00:25:19;;;;;;;;;;;;;;;9.19;73.77;96177.44;1278909;23;19904;-67
2021/05/26 00:25:50;;;;;;;;;;;;;;;9.15;74.28;96176.34;1278911;23;19990;-68
2021/05/26 00:26:20;;;;;;;;;;;;;;;9.05;74.94;96169.06;1279001;23;19939;-69
2021/05/26 00:26:50;;;;;;;;;;;;;;;9.05;74.61;96173.59;1279025;23;19986;-69
2021/05/26 00:27:21;;;;;;;;;;;;;;;9.08;74.76;96168.56;1278916;23;19919;-68
2021/05/26 00:27:57;;;;;;;;;;;;;;;9.06;74.43;96170.72;1278983;23;19912;-67
2021/05/26 00:28:28;;;;;;;;;;;;;;;9.05;74.53;96168.28;1279088;23;19904;-68
2021/05/26 00:28:58;;;;;;;;;;;;;;;9.05;74.69;96166.41;1278958;23;19904;-67
2021/05/26 00:29:28;;;;;;;;;;;;;;;9.09;74.52;96167.50;1278765;23;19939;-67
2021/05/26 00:29:59;;;;;;;;;;;;;;;9.09;74.32;96167.50;1279208;23;19936;-67
2021/05/26 00:30:35;;;;;;;;;;;;;;;9.10;75.00;96169.13;1279036;23;20255;-68
2021/05/26 00:31:08;;;;;;;;;;;;;;;9.08;74.80;96173.91;1279016;23;19980;-67
2021/05/26 00:31:39;;;;;;;;;;;;;;;9.09;75.27;96172.03;1278924;23;19931;-67
2021/05/26 00:32:09;;;;;;;;;;;;;;;9.04;75.09;96164.81;1278908;23;19911;-67
2021/05/26 00:32:39;;;;;;;;;;;;;;;9.05;75.30;96165.59;1278855;23;19908;-67
2021/05/26 00:33:09;;;;;;;;;;;;;;;9.05;75.81;96170.94;1278977;23;19912;-67
2021/05/26 00:33:40;;;;;;;;;;;;;;;9.07;75.36;96161.66;1278939;23;20314;-67
2021/05/26 00:34:10;;;;;;;;;;;;;;;9.11;75.17;96169.94;1278954;23;19904;-68
2021/05/26 00:34:41;;;;;;;;;;;;;;;9.08;75.92;96163.25;1279008;23;19982;-68
2021/05/26 00:35:12;;;;;;;;;;;;;;;9.10;75.65;96165.66;1278945;23;19920;-67
2021/05/26 00:35:42;;;;;;;;;;;;;;;9.07;76.03;96166.97;1278928;23;19931;-67
2021/05/26 00:36:13;;;;;;;;;;;;;;;9.09;75.59;96170.19;1278957;23;19904;-67
2021/05/26 00:36:43;;;;;;;;;;;;;;;9.08;75.76;96168.56;1279070;23;19914;-68
2021/05/26 00:37:13;;;;;;;;;;;;;;;9.07;76.11;96168.84;1278990;23;19904;-67
2021/05/26 00:37:43;;;;;;;;;;;;;;;9.06;76.31;96172.56;1278811;23;19908;-67
2021/05/26 00:38:14;;;;;;;;;;;;;;;9.05;76.06;96173.59;1278990;23;19912;-67
2021/05/26 00:38:44;;;;;;;;;;;;;;;9.04;76.43;96169.34;1278977;23;19908;-67
2021/05/26 00:39:15;;;;;;;;;;;;;;;9.05;76.32;96173.59;1278976;23;19904;-67
2021/05/26 00:39:46;;;;;;;;;;;;;;;9.02;76.51;96169.59;1278748;23;19908;-67
2021/05/26 00:40:16;;;;;;;;;;;;;;;9.04;76.24;96167.47;1278829;23;19904;-67
2021/05/26 00:40:47;;;;;;;;;;;;;;;9.05;76.54;96163.75;1278917;23;19991;-67
2021/05/26 00:41:17;;;;;;;;;;;;;;;9.07;76.40;96174.97;1278948;23;19911;-67
2021/05/26 00:41:48;;;;;;;;;;;;;;;9.01;76.43;96165.34;1278451;23;19912;-67
2021/05/26 00:42:18;;;;;;;;;;;;;;;8.90;77.06;96166.28;1278579;23;19904;-67
2021/05/26 00:42:49;;;;;;;;;;;;;;;8.92;77.12;96174.06;1278609;23;20414;-67
2021/05/26 00:43:19;;;;;;;;;;;;;;;8.91;77.44;96164.47;1278592;23;19924;-67
2021/05/26 00:43:49;;;;;;;;;;;;;;;8.88;77.68;96160.44;1278959;23;19929;-67
2021/05/26 00:44:20;;;;;;;;;;;;;;;8.89;77.97;96166.56;1278446;23;19935;-67
2021/05/26 00:44:51;;;;;;;;;;;;;;;8.87;77.89;96163.34;1278617;23;20352;-67
2021/05/26 00:45:21;;;;;;;;;;;;;;;8.84;78.23;96169.97;1278529;23;19904;-68
2021/05/26 00:45:51;;;;;;;;;;;;;;;8.80;78.31;96156.38;1278595;23;20277;-67
2021/05/26 00:46:22;;;;;;;;;;;;;;;8.82;78.44;96161.44;1278868;23;19904;-67
2021/05/26 00:46:52;;;;;;;;;;;;;;;8.82;78.51;96166.78;1278837;23;19908;-67
2021/05/26 00:47:34;;;;;;;;;;;;;;;8.72;79.09;96167.50;1278926;23;19908;-67
2021/05/26 00:48:05;;;;;;;;;;;;;;;8.73;78.83;96158.44;1278987;23;20330;-68
2021/05/26 00:48:35;;;;;;;;;;;;;;;8.76;78.71;96165.94;1278862;23;19904;-67
2021/05/26 00:49:05;;;;;;;;;;;;;;;8.76;78.90;96160.59;1278902;23;20319;-67
2021/05/26 00:49:36;;;;;;;;;;;;;;;8.77;78.96;96162.22;1278956;23;20331;-67
2021/05/26 00:50:06;;;;;;;;;;;;;;;8.80;78.81;96161.72;1278764;23;19915;-67
2021/05/26 00:50:37;;;;;;;;;;;;;;;8.77;78.96;96162.22;1278931;23;19911;-67
2021/05/26 00:51:07;;;;;;;;;;;;;;;8.75;78.92;96158.16;1278879;23;19912;-67
2021/05/26 00:51:37;;;;;;;;;;;;;;;8.76;78.99;96167.81;1278936;23;19959;-68
2021/05/26 00:52:08;;;;;;;;;;;;;;;8.80;78.89;96159.03;1278957;23;20229;-67
2021/05/26 00:52:38;;;;;;;;;;;;;;;8.77;79.11;96162.22;1278764;23;19915;-67
2021/05/26 00:53:09;;;;;;;;;;;;;;;8.77;79.35;96151.53;1278971;23;19947;-67
2021/05/26 00:53:39;;;;;;;;;;;;;;;8.75;79.40;96156.34;1278907;23;19904;-67
2021/05/26 00:54:10;;;;;;;;;;;;;;;8.74;79.33;96160.03;1278929;23;19911;-67
2021/05/26 00:54:40;;;;;;;;;;;;;;;8.77;79.35;96156.06;1279017;23;20306;-67
2021/05/26 00:55:11;;;;;;;;;;;;;;;8.74;79.62;96157.38;1278894;23;19927;-67
2021/05/26 00:55:42;;;;;;;;;;;;;;;8.75;79.76;96160.84;1279006;23;20246;-67
2021/05/26 00:56:12;;;;;;;;;;;;;;;8.75;79.16;96159.00;1278935;23;19931;-67
2021/05/26 00:56:42;;;;;;;;;;;;;;;8.75;78.85;96150.19;1278955;23;19904;-67
2021/05/26 00:57:13;;;;;;;;;;;;;;;8.76;78.95;96147.28;1278923;23;20263;-68
2021/05/26 00:57:43;;;;;;;;;;;;;;;8.80;79.24;96151.06;1278905;23;20307;-68
2021/05/26 00:58:13;;;;;;;;;;;;;;;8.72;79.48;96151.50;1278996;23;19904;-68
2021/05/26 00:58:43;;;;;;;;;;;;;;;8.70;79.77;96148.31;1278871;23;19986;-68
2021/05/26 00:59:14;;;;;;;;;;;;;;;8.72;79.23;96145.38;1278997;23;20383;-67
2021/05/26 00:59:44;;;;;;;;;;;;;;;8.70;79.33;96147.47;1278980;23;19904;-68
2021/05/26 01:00:15;;;;;;;;;;;;;;;8.72;79.12;96151.50;1278880;23;20013;-68
2021/05/26 01:00:45;;;;;;;;;;;;;;;8.70;79.25;96144.81;1278925;23;19911;-68
2021/05/26 01:01:16;;;;;;;;;;;;;;;8.72;79.14;96154.16;1278885;23;19904;-68
2021/05/26 01:01:47;;;;;;;;;;;;;;;8.75;79.10;96145.69;1278957;23;20428;-67
2021/05/26 01:02:17;;;;;;;;;;;;;;;8.76;79.06;96143.81;1278934;23;19904;-68
2021/05/26 01:02:49;;;;;;;;;;;;;;;8.76;79.27;96136.63;1278868;23;19904;-67
2021/05/26 01:03:20;;;;;;;;;;;;;;;8.77;79.25;96140.09;1278449;23;19904;-68
2021/05/26 01:03:50;;;;;;;;;;;;;;;8.80;78.96;96142.22;1278521;23;19912;-68
2021/05/26 01:04:20;;;;;;;;;;;;;;;8.77;79.16;96142.75;1278469;23;20236;-68
2021/05/26 01:04:51;;;;;;;;;;;;;;;8.73;79.15;96137.13;1278448;23;19909;-68
2021/05/26 01:05:21;;;;;;;;;;;;;;;8.71;79.26;96139.25;1278943;23;19958;-66
2021/05/26 01:05:52;;;;;;;;;;;;;;;8.75;79.00;96129.69;1278885;23;19946;-67
2021/05/26 01:06:22;;;;;;;;;;;;;;;8.72;79.07;96138.19;1278862;23;20368;-67
2021/05/26 01:06:52;;;;;;;;;;;;;;;8.70;79.18;96136.81;1278926;23;19908;-66
2021/05/26 01:07:23;;;;;;;;;;;;;;;8.71;79.12;96128.59;1278968;23;20381;-66
2021/05/26 01:07:53;;;;;;;;;;;;;;;8.71;79.00;96138.44;1278878;23;19915;-66
2021/05/26 01:08:23;;;;;;;;;;;;;;;8.70;79.16;96131.47;1278840;23;20270;-66
2021/05/26 01:08:53;;;;;;;;;;;;;;;8.70;78.82;96127.00;1278784;23;20401;-66
2021/05/26 01:09:25;;;;;;;;;;;;;;;8.72;79.27;96127.53;1278857;23;19908;-66
2021/05/26 01:09:56;;;;;;;;;;;;;;;8.71;79.06;96130.44;1278957;23;19935;-66
2021/05/26 01:10:26;;;;;;;;;;;;;;;8.74;79.15;96138.72;1278977;23;19904;-67
2021/05/26 01:10:57;;;;;;;;;;;;;;;8.72;79.13;96130.19;1278876;23;19909;-66
2021/05/26 01:11:27;;;;;;;;;;;;;;;8.70;79.30;96131.47;1278992;23;19904;-66
2021/05/26 01:11:57;;;;;;;;;;;;;;;8.70;79.01;96124.31;1278926;23;19954;-66
2021/05/26 01:12:28;;;;;;;;;;;;;;;8.68;79.19;96125.63;1278977;23;19908;-67
2021/05/26 01:12:58;;;;;;;;;;;;;;;8.69;79.34;96135.22;1278491;23;19908;-66
2021/05/26 01:13:28;;;;;;;;;;;;;;;8.70;79.74;96123.50;1278599;23;19908;-68
2021/05/26 01:13:59;;;;;;;;;;;;;;;8.71;79.50;96131.25;1278514;23;19909;-68
2021/05/26 01:14:29;;;;;;;;;;;;;;;8.71;79.30;96128.59;1278584;23;19904;-68
2021/05/26 01:14:59;;;;;;;;;;;;;;;8.69;79.09;96129.88;1278895;23;19908;-68
2021/05/26 01:15:30;;;;;;;;;;;;;;;8.67;79.21;96132.00;1278983;23;20374;-68
2021/05/26 01:16:00;;;;;;;;;;;;;;;8.68;79.51;96139.75;1279092;23;20340;-68
2021/05/26 01:16:30;;;;;;;;;;;;;;;8.69;79.40;96127.22;1279434;23;19904;-68
2021/05/26 01:17:01;;;;;;;;;;;;;;;8.70;79.29;96128.81;1279319;23;19908;-68
2021/05/26 01:17:33;;;;;;;;;;;;;;;8.67;79.28;96127.47;1279382;23;20003;-68
2021/05/26 01:18:22;;;;;;;;;;;;;;;8.68;79.13;96130.94;1279337;23;20318;-68
2021/05/26 01:18:53;;;;;;;;;;;;;;;8.64;79.47;96127.19;1279357;23;20482;-68
2021/05/26 01:19:23;;;;;;;;;;;;;;;8.69;79.41;96129.88;1279382;23;19955;-68
2021/05/26 01:19:53;;;;;;;;;;;;;;;8.66;79.30;96128.53;1279406;23;19908;-68
2021/05/26 01:20:27;;;;;;;;;;;;;;;8.69;79.37;96125.34;1279408;23;19911;-68
2021/05/26 01:20:58;;;;;;;;;;;;;;;8.70;78.83;96127.00;1279336;23;20219;-68
2021/05/26 01:21:29;;;;;;;;;;;;;;;8.72;79.29;96126.72;1279355;23;19911;-68
2021/05/26 01:21:59;;;;;;;;;;;;;;;8.69;79.32;96133.34;1279268;23;20230;-67
2021/05/26 01:22:29;;;;;;;;;;;;;;;8.70;79.05;96129.66;1278950;23;19910;-67
2021/05/26 01:23:00;;;;;;;;;;;;;;;8.71;79.20;96123.25;1272710;23;19920;-68
2021/05/26 01:23:31;;;;;;;;;;;;;;;8.71;78.89;96123.25;1272752;23;20315;-68
2021/05/26 01:24:01;;;;;;;;;;;;;;;8.75;79.12;96128.84;1266593;23;20184;-67
2021/05/26 01:24:31;;;;;;;;;;;;;;;8.70;79.15;96121.66;1272946;23;19908;-69
2021/05/26 01:25:03;;;;;;;;;;;;;;;8.69;79.54;96121.88;1279040;23;19927;-68
2021/05/26 01:25:33;;;;;;;;;;;;;;;8.69;79.45;96125.34;1278994;23;19900;-68
2021/05/26 01:26:04;;;;;;;;;;;;;;;8.69;79.39;96121.88;1279271;23;19904;-68
2021/05/26 01:26:34;;;;;;;;;;;;;;;8.67;79.67;96122.16;1279351;23;19927;-68
2021/05/26 01:27:04;;;;;;;;;;;;;;;8.65;79.51;96120.78;1279277;23;19904;-68
2021/05/26 01:27:35;;;;;;;;;;;;;;;8.65;79.87;96124.28;1279902;23;19900;-68
2021/05/26 01:28:05;;;;;;;;;;;;;;;8.58;80.01;96118.34;1281523;23;19901;-68
2021/05/26 01:28:36;;;;;;;;;;;;;;;8.61;80.05;96119.72;1280718;23;19896;-67
2021/05/26 01:29:06;;;;;;;;;;;;;;;8.58;79.90;96116.47;1280962;23;19912;-68
2021/05/26 01:29:36;;;;;;;;;;;;;;;8.58;80.01;96115.69;1274879;23;19967;-68
2021/05/26 01:30:07;;;;;;;;;;;;;;;8.61;80.03;96109.84;1274968;23;19905;-68
2021/05/26 01:30:37;;;;;;;;;;;;;;;8.58;80.25;96119.16;1267246;23;19904;-68
2021/05/26 01:31:08;;;;;;;;;;;;;;;8.57;80.15;96120.22;1272885;23;19908;-67
2021/05/26 01:31:38;;;;;;;;;;;;;;;8.55;80.14;96113.53;1279000;23;19912;-67
2021/05/26 01:32:08;;;;;;;;;;;;;;;8.54;80.17;96111.91;1278832;23;19904;-68
2021/05/26 01:32:56;;;;;;;;;;;;;;;8.51;80.27;96118.56;1279401;23;19900;-68
2021/05/26 01:33:28;;;;;;;;;;;;;;;8.49;80.27;96110.00;1279401;23;19911;-69
2021/05/26 01:33:58;;;;;;;;;;;;;;;8.48;80.50;96123.59;1279270;23;19901;-68
2021/05/26 01:34:29;;;;;;;;;;;;;;;8.48;80.38;96108.41;1279398;23;19955;-68
2021/05/26 01:34:59;;;;;;;;;;;;;;;8.49;80.34;96119.84;1279301;23;20247;-69
2021/05/26 01:35:29;;;;;;;;;;;;;;;8.51;80.12;96118.56;1278815;23;19907;-69
2021/05/26 01:35:59;;;;;;;;;;;;;;;8.51;80.17;96115.91;1278960;23;19896;-67
2021/05/26 01:36:34;;;;;;;;;;;;;;;8.51;80.04;96115.91;1272564;23;20266;-68
2021/05/26 01:37:04;;;;;;;;;;;;;;;8.55;80.00;96113.53;1273634;23;19904;-67
2021/05/26 01:37:38;;;;;;;;;;;;;;;8.57;79.90;96112.22;1279017;23;20313;-67
2021/05/26 01:38:12;;;;;;;;;;;;;;;8.56;80.20;96112.47;1278962;23;19980;-67
2021/05/26 01:38:42;;;;;;;;;;;;;;;8.55;80.04;96113.53;1279177;23;19907;-67
2021/05/26 01:39:15;;;;;;;;;;;;;;;8.51;80.02;96118.56;1279282;23;20003;-67
2021/05/26 01:39:48;;;;;;;;;;;;;;;8.52;80.02;96106.03;1279302;23;20238;-67
2021/05/26 01:40:19;;;;;;;;;;;;;;;8.52;79.70;96114.84;1279226;23;19904;-68
2021/05/26 01:40:49;;;;;;;;;;;;;;;8.54;79.58;96115.38;1279266;23;19939;-69
2021/05/26 01:41:19;;;;;;;;;;;;;;;8.56;79.51;96112.47;1278910;23;19904;-67
2021/05/26 01:41:49;;;;;;;;;;;;;;;8.55;79.82;96114.34;1278964;23;19908;-67
2021/05/26 01:42:29;;;;;;;;;;;;;;;8.52;80.00;96106.84;1278954;23;19904;-68
2021/05/26 01:43:00;;;;;;;;;;;;;;;8.58;79.69;96118.34;1279009;23;19935;-67
2021/05/26 01:43:31;;;;;;;;;;;;;;;8.59;79.74;96112.75;1279303;23;19904;-68
2021/05/26 01:44:02;;;;;;;;;;;;;;;8.61;79.49;96112.53;1278691;23;19932;-67
2021/05/26 01:44:35;;;;;;;;;;;;;;;8.64;79.35;96106.66;1278910;23;19908;-67
2021/05/26 01:45:09;;;;;;;;;;;;;;;8.64;79.27;96106.66;1278838;23;19939;-67
2021/05/26 01:45:39;;;;;;;;;;;;;;;8.65;79.35;96107.47;1278885;23;19924;-68
2021/05/26 01:46:09;;;;;;;;;;;;;;;8.63;79.25;96109.59;1279214;23;19995;-68
2021/05/26 01:46:40;;;;;;;;;;;;;;;8.61;79.70;96107.19;1279273;23;19900;-68
2021/05/26 01:47:10;;;;;;;;;;;;;;;8.56;80.04;96104.47;1278918;23;19900;-68
2021/05/26 01:47:41;;;;;;;;;;;;;;;8.50;80.38;96102.84;1279208;23;20327;-68
2021/05/26 01:48:12;;;;;;;;;;;;;;;8.46;80.68;96105.19;1279212;23;19904;-68
2021/05/26 01:48:48;;;;;;;;;;;;;;;8.46;80.88;96104.41;1279149;23;19901;-68
2021/05/26 01:49:18;;;;;;;;;;;;;;;8.44;80.85;96101.97;1279217;23;19908;-67
2021/05/26 01:49:49;;;;;;;;;;;;;;;8.41;80.88;96097.16;1279226;23;20311;-69
2021/05/26 01:50:22;;;;;;;;;;;;;;;8.45;80.76;96097.47;1279272;23;19908;-67
2021/05/26 01:50:52;;;;;;;;;;;;;;;8.47;80.86;96098.00;1278754;23;19900;-68
2021/05/26 01:51:22;;;;;;;;;;;;;;;8.43;81.31;96105.69;1278951;23;19962;-68
2021/05/26 01:51:53;;;;;;;;;;;;;;;8.42;80.95;96097.97;1278853;23;20227;-67
2021/05/26 01:52:23;;;;;;;;;;;;;;;8.43;81.08;96099.56;1278672;23;19912;-67
2021/05/26 01:53:00;;;;;;;;;;;;;;;8.40;81.10;96100.09;1279274;23;19912;-67
2021/05/26 01:53:30;;;;;;;;;;;;;;;8.34;81.68;96105.34;1279130;23;19975;-68
2021/05/26 01:54:01;;;;;;;;;;;;;;;8.37;81.90;96089.94;1279287;23;19963;-68
2021/05/26 01:54:32;;;;;;;;;;;;;;;8.40;82.01;96100.09;1279311;23;19905;-68
2021/05/26 01:55:03;;;;;;;;;;;;;;;8.44;81.76;96098.50;1279242;23;19901;-68
2021/05/26 01:55:37;;;;;;;;;;;;;;;8.36;81.96;96098.94;1279148;23;19923;-68
2021/05/26 01:56:19;;;;;;;;;;;;;;;8.35;82.01;96100.81;1279239;23;20374;-67
2021/05/26 01:56:50;;;;;;;;;;;;;;;8.36;81.57;96088.31;1279190;23;19991;-67
2021/05/26 01:57:20;;;;;;;;;;;;;;;8.38;81.79;96094.19;1279235;23;19904;-67
2021/05/26 01:57:50;;;;;;;;;;;;;;;8.40;81.44;96092.91;1279240;23;19904;-67
2021/05/26 01:58:20;;;;;;;;;;;;;;;8.36;81.80;96091.78;1279305;23;19952;-68
2021/05/26 01:58:51;;;;;;;;;;;;;;;8.41;81.52;96093.69;1279069;23;19909;-67
2021/05/26 01:59:24;;;;;;;;;;;;;;;8.45;81.54;96086.81;1279231;23;19952;-67
2021/05/26 01:59:54;;;;;;;;;;;;;;;8.42;81.29;96093.44;1279282;23;19927;-68
2021/05/26 02:00:24;;;;;;;;;;;;;;;8.38;81.44;96094.19;1279225;23;20329;-69
2021/05/26 02:00:55;;;;;;;;;;;;;;;8.40;81.38;96089.44;1279139;23;19905;-68
2021/05/26 02:01:25;;;;;;;;;;;;;;;8.37;81.78;96090.72;1279262;23;19908;-67
2021/05/26 02:01:55;;;;;;;;;;;;;;;8.32;81.83;96088.78;1279261;23;20315;-67
2021/05/26 02:02:26;;;;;;;;;;;;;;;8.35;81.89;96090.16;1279138;23;20311;-68
2021/05/26 02:02:56;;;;;;;;;;;;;;;8.32;82.21;96086.13;1279178;23;19955;-68
2021/05/26 02:03:26;;;;;;;;;;;;;;;8.29;82.59;96081.31;1279179;23;19904;-68
2021/05/26 02:03:57;;;;;;;;;;;;;;;8.32;82.09;96083.47;1279217;23;19924;-67
2021/05/26 02:04:27;;;;;;;;;;;;;;;8.36;81.78;96085.63;1279140;23;19908;-69
2021/05/26 02:04:57;;;;;;;;;;;;;;;8.36;81.85;96081.16;1279257;23;19946;-66
2021/05/26 02:05:27;;;;;;;;;;;;;;;8.33;81.66;96079.75;1279119;23;19912;-68
2021/05/26 02:05:58;;;;;;;;;;;;;;;8.29;81.92;96083.16;1278863;23;19927;-67
2021/05/26 02:06:28;;;;;;;;;;;;;;;8.29;81.71;96077.84;1278866;23;20353;-67
2021/05/26 02:07:02;;;;;;;;;;;;;;;8.28;81.90;96087.69;1278923;23;19903;-67
2021/05/26 02:07:33;;;;;;;;;;;;;;;8.30;82.19;96080.25;1278856;23;20241;-67
2021/05/26 02:08:03;;;;;;;;;;;;;;;8.27;82.55;96080.75;1278904;23;19900;-67
2021/05/26 02:08:33;;;;;;;;;;;;;;;8.30;82.28;96074.94;1279145;23;19939;-67
2021/05/26 02:09:04;;;;;;;;;;;;;;;8.34;82.10;96083.22;1279228;23;20204;-67
2021/05/26 02:09:35;;;;;;;;;;;;;;;8.32;82.27;96085.34;1279277;23;19971;-67
2021/05/26 02:10:05;;;;;;;;;;;;;;;8.28;82.22;96079.69;1279184;23;19904;-69
2021/05/26 02:12:23;;;;;;;;;;;;;;;8.31;81.99;96081.06;1279263;23;19990;-68
2021/05/26 02:12:53;;;;;;;;;;;;;;;8.24;81.89;96078.63;1279289;23;19907;-67
2021/05/26 02:13:23;;;;;;;;;;;;;;;8.21;82.11;96076.44;1279168;23;19926;-67
2021/05/26 02:14:03;;;;;;;;;;;;;;;8.23;82.20;96081.50;1279282;23;19903;-67
2021/05/26 02:14:33;;;;;;;;;;;;;;;8.20;82.21;96080.19;1279509;23;20515;-67
2021/05/26 02:15:05;;;;;;;;;;;;;;;8.16;82.35;96081.72;1279730;23;19903;-67
2021/05/26 02:15:35;;;;;;;;;;;;;;;8.18;82.07;96076.94;1279219;23;19987;-67
2021/05/26 02:16:06;;;;;;;;;;;;;;;8.18;82.36;96078.81;1279283;23;20238;-67
2021/05/26 02:16:36;;;;;;;;;;;;;;;8.23;82.17;96079.66;1279302;23;19908;-67
2021/05/26 02:17:07;;;;;;;;;;;;;;;8.23;82.34;96077.00;1279275;23;19896;-67
2021/05/26 02:17:37;;;;;;;;;;;;;;;8.23;81.85;96078.84;1279264;23;19908;-68
2021/05/26 02:18:07;;;;;;;;;;;;;;;8.22;81.98;96075.38;1279347;23;19907;-68
2021/05/26 02:18:37;;;;;;;;;;;;;;;8.25;82.31;96079.41;1279078;23;19935;-68
2021/05/26 02:19:08;;;;;;;;;;;;;;;8.23;82.19;96077.00;1279103;23;19897;-68
2021/05/26 02:19:38;;;;;;;;;;;;;;;8.24;82.15;96069.81;1279201;23;19919;-68
2021/05/26 02:20:09;;;;;;;;;;;;;;;8.24;81.86;96075.97;1279289;23;20317;-68
2021/05/26 02:20:39;;;;;;;;;;;;;;;8.24;82.04;96075.13;1279323;23;19912;-68
2021/05/26 02:21:10;;;;;;;;;;;;;;;8.12;82.54;96066.50;1279277;23;20226;-68
2021/05/26 02:21:40;;;;;;;;;;;;;;;8.11;82.69;96065.72;1279248;23;19916;-68
2021/05/26 02:22:10;;;;;;;;;;;;;;;8.06;82.28;96058.47;1279405;23;19903;-68
2021/05/26 02:22:40;;;;;;;;;;;;;;;8.03;82.59;96061.63;1279292;23;19931;-68
2021/05/26 02:23:13;;;;;;;;;;;;;;;8.04;82.70;96060.59;1279261;23;19967;-69
2021/05/26 02:23:43;;;;;;;;;;;;;;;8.08;82.41;96064.34;1280903;23;19915;-70
2021/05/26 02:24:13;;;;;;;;;;;;;;;8.04;82.51;96060.59;1280540;23;20302;-68
2021/05/26 02:24:44;;;;;;;;;;;;;;;8.03;82.27;96064.28;1280676;23;19911;-68
2021/05/26 02:25:14;;;;;;;;;;;;;;;8.02;82.71;96060.03;1280689;23;20238;-68
2021/05/26 02:25:44;;;;;;;;;;;;;;;8.02;82.38;96064.56;1281180;23;19904;-68
2021/05/26 02:26:15;;;;;;;;;;;;;;;8.09;82.14;96062.50;1285333;23;19989;-68
2021/05/26 02:26:45;;;;;;;;;;;;;;;8.10;82.25;96066.78;1279342;23;19962;-68
2021/05/26 02:27:15;;;;;;;;;;;;;;;8.11;82.13;96064.91;1278992;23;19901;-68
2021/05/26 02:27:45;;;;;;;;;;;;;;;8.12;82.35;96061.97;1278930;23;19908;-68
2021/05/26 02:28:16;;;;;;;;;;;;;;;8.15;82.09;96069.47;1279171;23;19900;-68
2021/05/26 02:28:46;;;;;;;;;;;;;;;8.17;82.16;96070.00;1279407;23;19900;-68
2021/05/26 02:29:16;;;;;;;;;;;;;;;8.20;82.15;96069.53;1279168;23;19946;-68
2021/05/26 02:29:47;;;;;;;;;;;;;;;8.20;81.81;96063.41;1279279;23;19907;-68
2021/05/26 02:30:17;;;;;;;;;;;;;;;8.20;81.71;96061.53;1279151;23;20295;-67
2021/05/26 02:30:47;;;;;;;;;;;;;;;8.18;81.36;96062.84;1279284;23;19900;-67
2021/05/26 02:31:17;;;;;;;;;;;;;;;8.20;81.50;96058.88;1279168;23;19915;-68
2021/05/26 02:31:48;;;;;;;;;;;;;;;8.21;81.64;96060.47;1279368;23;19908;-67
2021/05/26 02:32:18;;;;;;;;;;;;;;;8.24;80.97;96059.16;1279012;23;20311;-67
2021/05/26 02:32:48;;;;;;;;;;;;;;;8.25;81.26;96060.78;1279296;23;20341;-67
2021/05/26 02:33:20;;;;;;;;;;;;;;;8.23;81.40;96053.03;1278653;23;20285;-67
2021/05/26 02:33:50;;;;;;;;;;;;;;;8.25;80.95;96061.59;1278907;23;19904;-68
2021/05/26 02:34:20;;;;;;;;;;;;;;;8.21;81.36;96060.47;1278884;23;19900;-67
2021/05/26 02:34:51;;;;;;;;;;;;;;;8.23;81.30;96060.22;1278906;23;19908;-67
2021/05/26 02:35:21;;;;;;;;;;;;;;;8.22;81.13;96056.75;1279247;23;19946;-68
2021/05/26 02:35:51;;;;;;;;;;;;;;;8.23;80.96;96057.56;1278817;23;19907;-67
2021/05/26 02:36:21;;;;;;;;;;;;;;;8.21;80.67;96060.47;1278780;23;19998;-67
2021/05/26 02:36:52;;;;;;;;;;;;;;;8.22;80.79;96054.09;1278884;23;19901;-67
2021/05/26 02:37:22;;;;;;;;;;;;;;;8.24;80.82;96056.50;1278689;23;19900;-68
2021/05/26 02:37:53;;;;;;;;;;;;;;;8.25;81.18;96058.91;1279294;23;20270;-68
2021/05/26 02:38:23;;;;;;;;;;;;;;;8.27;81.51;96059.47;1279169;23;19907;-68
2021/05/26 02:38:53;;;;;;;;;;;;;;;8.23;81.40;96060.22;1279304;23;19950;-67
2021/05/26 02:39:24;;;;;;;;;;;;;;;8.25;81.24;96058.91;1279513;23;19907;-68
2021/05/26 02:39:54;;;;;;;;;;;;;;;8.23;81.27;96062.88;1279473;23;20207;-68
2021/05/26 02:40:24;;;;;;;;;;;;;;;8.21;81.21;96065.00;1279218;23;20303;-67
2021/05/26 02:40:54;;;;;;;;;;;;;;;8.16;81.34;96057.78;1280707;23;19908;-68
2021/05/26 02:41:25;;;;;;;;;;;;;;;8.18;81.47;96065.50;1280640;23;19896;-68
2021/05/26 02:41:55;;;;;;;;;;;;;;;8.20;81.71;96058.88;1280223;23;19932;-68
2021/05/26 02:42:25;;;;;;;;;;;;;;;8.22;81.64;96061.28;1280191;23;19907;-68
2021/05/26 02:42:55;;;;;;;;;;;;;;;8.18;81.42;96057.50;1280585;23;20210;-68
2021/05/26 02:43:26;;;;;;;;;;;;;;;8.18;81.35;96055.66;1280861;23;19900;-68
2021/05/26 02:43:56;;;;;;;;;;;;;;;8.18;81.62;96058.31;1280319;23;19900;-69
2021/05/26 02:44:26;;;;;;;;;;;;;;;8.21;81.38;96059.69;1280580;23;19959;-68
2021/05/26 02:44:57;;;;;;;;;;;;;;;8.24;80.81;96059.97;1280138;23;19959;-69